Select Airport:
Chesapeake Regional Airport
Last updated: 7 minutes ago
Flight conditions: VFR
Visibility: 7.0 statute miles
Sky Conditions: Clear
Wind From: 180°
Wind speed: 4 knots (4.6 mph)
Temperature: 20.7°C (69.26°F)
Dew Point: 20.1°C (68.18°F)
Altimiter setting: 30.04 in-hg
WX phone: 1-757-204-4290
WX freq: 123.675 MHz
Runway 23
   Crosswind component: 3.06 knots (3.52 mph)
   Headwind component: 2.57 knots (2.96 mph)
KCPK 070835Z AUTO 18004KT 7SM CLR 21/20 A3004 RMK AO2 T02070201
FOR REFERENCE USE ONLY, DATA MAY NOT BE CURRENT.
ALWAYS CHECK FOR UP TO DATE INFORMATION.